createdAt,value
2022-09-03T00:01:10.059Z,19.04
2022-09-03T00:06:16.036Z,19.12
2022-09-03T00:11:20.491Z,19.25
2022-09-03T00:16:25.306Z,19.32
2022-09-03T00:21:33.104Z,19.24
2022-09-03T00:26:37.094Z,19.32
2022-09-03T00:31:40.486Z,19.49
2022-09-03T00:36:43.309Z,19.49
2022-09-03T00:41:51.279Z,19.47
2022-09-03T00:46:57.602Z,19.61
2022-09-03T00:52:06.636Z,19.60
2022-09-03T00:57:18.157Z,19.63
2022-09-03T01:02:30.177Z,19.54
2022-09-03T01:07:42.099Z,19.61
2022-09-03T01:12:50.358Z,19.62
2022-09-03T01:18:03.573Z,19.70
2022-09-03T01:23:22.400Z,19.77
2022-09-03T01:28:39.188Z,19.81
2022-09-03T01:33:46.333Z,19.84
2022-09-03T01:38:50.985Z,19.66
2022-09-03T01:44:00.443Z,19.70
2022-09-03T01:49:07.340Z,19.72
2022-09-03T01:54:28.074Z,19.71
2022-09-03T01:59:33.230Z,19.66
2022-09-03T02:04:32.125Z,19.66
2022-09-03T02:09:32.766Z,19.68
2022-09-03T02:14:33.724Z,19.69
2022-09-03T02:19:34.592Z,19.50
2022-09-03T02:24:34.148Z,19.53
2022-09-03T02:29:34.620Z,19.56
2022-09-03T02:34:33.461Z,19.51
2022-09-03T02:39:36.172Z,19.57
2022-09-03T02:44:42.963Z,19.57
2022-09-03T02:49:42.329Z,19.58
2022-09-03T02:54:42.157Z,19.66
2022-09-03T02:59:44.274Z,19.64
2022-09-03T03:04:43.141Z,19.69
2022-09-03T03:09:41.956Z,19.71
2022-09-03T03:14:42.122Z,19.71
2022-09-03T03:19:40.986Z,19.67
2022-09-03T03:24:40.043Z,19.71
2022-09-03T03:29:39.684Z,19.75
2022-09-03T03:34:40.094Z,19.81
2022-09-03T03:39:38.870Z,19.73
2022-09-03T03:44:37.854Z,19.68
2022-09-03T03:49:36.802Z,19.63
2022-09-03T03:54:37.130Z,19.61
2022-09-03T03:59:35.938Z,19.52
2022-09-03T04:04:34.799Z,19.53
2022-09-03T04:09:34.313Z,20.48
2022-09-03T04:14:35.538Z,21.25
2022-09-03T04:19:34.447Z,21.62
2022-09-03T04:24:33.599Z,21.92
2022-09-03T04:29:35.324Z,22.03
2022-09-03T04:34:34.301Z,22.12
2022-09-03T04:39:34.896Z,22.12
2022-09-03T04:44:38.605Z,22.08
2022-09-03T04:49:38.622Z,21.79
2022-09-03T04:55:20.907Z,21.65
2022-09-03T05:00:21.913Z,21.22
2022-09-03T05:05:21.096Z,20.85
2022-09-03T05:10:21.541Z,20.55
2022-09-03T05:15:25.623Z,20.36
2022-09-03T05:20:30.711Z,20.24
2022-09-03T05:25:32.243Z,20.19
2022-09-03T05:30:32.934Z,20.08
2022-09-03T05:35:31.767Z,19.88
2022-09-03T05:40:34.008Z,19.85
2022-09-03T05:45:34.394Z,19.78
2022-09-03T05:50:33.736Z,19.53
2022-09-03T05:55:36.417Z,19.52
2022-09-03T06:00:37.796Z,19.64
2022-09-03T06:05:36.700Z,19.67
2022-09-03T06:10:41.165Z,19.69
2022-09-03T06:15:42.388Z,19.72
2022-09-03T06:20:45.560Z,19.78
2022-09-03T06:25:44.325Z,19.82
2022-09-03T06:30:45.443Z,19.72
2022-09-03T06:35:44.960Z,19.59
2022-09-03T06:40:47.598Z,20.43
2022-09-03T06:45:56.011Z,21.34
2022-09-03T06:51:01.306Z,22.15
2022-09-03T06:56:07.491Z,22.60
2022-09-03T07:01:10.908Z,22.96
2022-09-03T07:06:12.142Z,23.33
2022-09-03T07:11:12.900Z,23.67
2022-09-03T07:16:15.638Z,23.99
2022-09-03T07:21:16.589Z,23.56
2022-09-03T07:26:18.069Z,22.90
2022-09-03T07:31:26.188Z,22.59
2022-09-03T07:36:28.509Z,22.18
2022-09-03T07:41:28.810Z,21.74
2022-09-03T07:46:29.522Z,21.71
2022-09-03T07:51:33.344Z,21.68
2022-09-03T07:56:32.404Z,21.59
2022-09-03T08:01:34.269Z,21.34
2022-09-03T08:06:34.787Z,21.07
2022-09-03T08:11:35.283Z,21.18
2022-09-03T08:16:37.597Z,21.12
2022-09-03T08:21:36.771Z,20.87
2022-09-03T08:26:41.363Z,20.89
2022-09-03T08:31:41.830Z,20.94
2022-09-03T08:36:51.281Z,20.95
2022-09-03T08:42:15.633Z,20.63
2022-09-03T08:47:22.133Z,20.72
2022-09-03T08:52:34.131Z,20.75
2022-09-03T08:57:39.571Z,20.82
2022-09-03T09:02:59.061Z,20.87
2022-09-03T09:08:08.255Z,20.71
2022-09-03T09:13:20.509Z,20.74
2022-09-03T09:18:32.823Z,20.52
2022-09-03T09:23:34.765Z,20.37
2022-09-03T09:28:37.842Z,20.55
2022-09-03T09:33:38.174Z,20.75
2022-09-03T09:38:39.666Z,20.80
2022-09-03T09:43:39.203Z,20.66
2022-09-03T09:48:50.250Z,20.71
2022-09-03T09:53:49.918Z,20.39
2022-09-03T09:58:49.392Z,20.41
2022-09-03T10:03:55.537Z,20.53
2022-09-03T10:08:55.709Z,20.69
2022-09-03T10:13:56.965Z,20.78
2022-09-03T10:19:06.649Z,20.84
2022-09-03T10:24:23.105Z,20.87
2022-09-03T10:29:26.172Z,20.88
2022-09-03T10:34:35.210Z,20.99
2022-09-03T10:39:48.881Z,20.97
2022-09-03T10:45:02.502Z,21.08
2022-09-03T10:50:08.793Z,21.02
2022-09-03T10:55:25.825Z,20.83
2022-09-03T11:00:26.198Z,21.08
2022-09-03T11:05:32.909Z,21.16
2022-09-03T11:10:34.573Z,21.34
2022-09-03T11:15:37.291Z,21.54
2022-09-03T11:20:38.426Z,21.43
2022-09-03T11:25:43.276Z,21.54
2022-09-03T11:31:00.989Z,21.42
2022-09-03T11:36:02.758Z,21.50
2022-09-03T11:41:05.301Z,21.23
2022-09-03T11:46:13.031Z,20.99
2022-09-03T11:51:23.347Z,20.93
2022-09-03T11:56:23.049Z,20.99
2022-09-03T12:01:24.735Z,21.13
2022-09-03T12:06:57.817Z,21.24
2022-09-03T12:12:08.062Z,21.33
2022-09-03T12:17:20.324Z,21.14
2022-09-03T12:22:20.995Z,21.20
2022-09-03T12:27:24.986Z,21.15
2022-09-03T12:32:24.327Z,21.41
2022-09-03T12:42:46.256Z,21.82
2022-09-03T12:47:45.824Z,21.75
2022-09-03T12:52:51.458Z,21.56
2022-09-03T12:57:57.866Z,21.53
2022-09-03T13:03:06.804Z,21.62
2022-09-03T13:08:10.037Z,21.75
2022-09-03T13:13:22.908Z,21.81
2022-09-03T13:18:30.373Z,21.66
2022-09-03T13:24:01.637Z,21.49
2022-09-03T13:29:21.706Z,21.25
2022-09-03T13:34:28.041Z,21.19
2022-09-03T13:39:32.191Z,21.24
2022-09-03T13:44:42.538Z,21.27
2022-09-03T13:50:02.615Z,21.29
2022-09-03T13:55:09.865Z,21.33
2022-09-03T14:00:12.508Z,21.41
2022-09-03T14:05:18.064Z,21.45
2022-09-03T14:10:52.463Z,21.32
2022-09-03T14:15:56.885Z,21.29
2022-09-03T14:21:00.455Z,21.30
2022-09-03T14:26:04.276Z,21.19
2022-09-03T14:31:16.192Z,21.22
2022-09-03T14:36:23.504Z,21.22
2022-09-03T14:41:53.760Z,21.27
2022-09-03T14:47:03.650Z,21.07
2022-09-03T14:52:16.329Z,20.94
2022-09-03T14:57:32.283Z,20.94
2022-09-03T15:03:09.369Z,20.96
2022-09-03T15:08:15.322Z,20.88
2022-09-03T15:13:20.715Z,20.87
2022-09-03T15:18:30.978Z,20.84
2022-09-03T15:23:54.450Z,20.78
2022-09-03T15:29:11.668Z,20.65
2022-09-03T15:34:21.023Z,20.51
2022-09-03T15:39:24.747Z,20.53
2022-09-03T15:44:27.825Z,20.51
2022-09-03T15:49:53.386Z,20.42
2022-09-03T15:55:02.544Z,20.49
2022-09-03T16:00:07.739Z,20.51
2022-09-03T16:05:16.445Z,20.52
2022-09-03T16:10:24.743Z,20.27
2022-09-03T16:15:30.726Z,20.24
2022-09-03T16:20:38.489Z,20.25
2022-09-03T16:25:50.166Z,20.19
2022-09-03T16:31:10.140Z,20.11
2022-09-03T16:36:34.199Z,20.09
2022-09-03T16:41:48.036Z,19.90
2022-09-03T16:46:59.750Z,19.72
2022-09-03T16:52:10.985Z,19.42
2022-09-03T16:57:25.709Z,19.18
2022-09-03T17:02:47.506Z,19.13
2022-09-03T17:08:08.796Z,19.03
2022-09-03T17:13:32.573Z,18.95
2022-09-03T17:18:44.478Z,18.92
2022-09-03T17:23:59.123Z,18.88
2022-09-03T17:29:08.631Z,18.81
2022-09-03T17:34:15.983Z,18.75
2022-09-03T17:39:46.661Z,18.65
2022-09-03T17:44:56.039Z,18.70
2022-09-03T17:50:02.872Z,18.72
2022-09-03T17:55:13.145Z,18.83
2022-09-03T18:00:23.431Z,18.79
2022-09-03T18:05:27.446Z,18.64
2022-09-03T18:10:32.710Z,18.62
2022-09-03T18:15:37.989Z,18.62
2022-09-03T18:21:22.947Z,18.60
2022-09-03T18:26:55.394Z,18.62
2022-09-03T18:32:19.312Z,18.57
2022-09-03T18:37:40.571Z,18.54
2022-09-03T18:43:09.594Z,18.51
2022-09-03T18:48:31.686Z,18.51
2022-09-03T18:53:57.449Z,18.49
2022-09-03T18:59:33.741Z,18.46
2022-09-03T19:05:13.663Z,18.42
2022-09-03T19:10:36.778Z,18.47
2022-09-03T19:16:04.543Z,18.45
2022-09-03T19:21:35.209Z,18.46
2022-09-03T19:27:03.210Z,18.47
2022-09-03T19:32:26.082Z,18.52
2022-09-03T19:37:48.999Z,18.43
2022-09-03T19:43:14.001Z,18.44
2022-09-03T19:48:41.941Z,18.46
2022-09-03T19:53:58.671Z,18.48
2022-09-03T19:59:21.668Z,18.45
2022-09-03T20:04:43.739Z,18.45
2022-09-03T20:10:01.733Z,18.42
2022-09-03T20:15:06.436Z,18.44
2022-09-03T20:20:25.065Z,18.44
2022-09-03T20:25:50.682Z,18.51
2022-09-03T20:31:01.558Z,18.52
2022-09-03T20:36:11.079Z,18.56
2022-09-03T20:41:18.740Z,18.67
2022-09-03T20:46:41.404Z,18.72
2022-09-03T20:51:46.295Z,18.64
2022-09-03T20:57:06.012Z,18.60
2022-09-03T21:02:18.793Z,18.65
2022-09-03T21:07:27.628Z,18.72
2022-09-03T21:12:36.868Z,18.70
2022-09-03T21:17:50.560Z,18.66
2022-09-03T21:23:00.894Z,18.67
2022-09-03T21:28:04.695Z,18.72
2022-09-03T21:33:11.014Z,18.76
2022-09-03T21:38:15.433Z,18.80
2022-09-03T21:43:18.486Z,18.73
2022-09-03T21:48:24.636Z,18.68
2022-09-03T21:53:31.833Z,18.68
2022-09-03T21:58:48.256Z,18.63
2022-09-03T22:03:48.619Z,18.60
2022-09-03T22:08:53.887Z,18.58
2022-09-03T22:14:03.254Z,18.55
2022-09-03T22:19:03.684Z,18.56
2022-09-03T22:24:19.193Z,18.53
2022-09-03T22:29:29.006Z,18.54
2022-09-03T22:34:43.734Z,18.49
2022-09-03T22:39:49.004Z,18.45
2022-09-03T22:45:14.978Z,18.38
2022-09-03T22:50:21.981Z,18.42
2022-09-03T22:55:23.516Z,18.39
2022-09-03T23:00:22.565Z,18.37
2022-09-03T23:05:33.962Z,18.39
2022-09-03T23:10:39.550Z,18.41
2022-09-03T23:15:41.735Z,18.33
2022-09-03T23:20:45.140Z,18.27
2022-09-03T23:25:48.643Z,18.14
2022-09-03T23:30:47.785Z,18.15
2022-09-03T23:35:57.893Z,18.06
2022-09-03T23:40:59.143Z,18.06
2022-09-03T23:46:07.765Z,18.02
2022-09-03T23:51:22.603Z,17.97
2022-09-03T23:56:45.694Z,17.97
